Toronto, Canada
Current Conditions -  °F | °C
As of 7:00 PM on Monday 20 Oct 2014 (Local Time) from CYYZ Reporting Station
Rain Showers Rain Showers  
Wind Chill: 52°   Ceiling: 1700
Heat Index: 52°   Visibility: 6mi
Dew Point: 50°   Wind: 0mph
Humidity: 94%   Direction: NA
Pressure: 29.79"   Gusts: NA
Location:  43.65°N, 79.39°W
Report Text: CYYZ 202300Z 00000KT 6SM -SHRA BR FEW006 OVC017 11/10 A2979 RMK SF2SC6 SLP091
Loading
Personal Weather Stations






























Interactive Weather Map
Tropical Storm Tracking
New forecast layout! Learn more

10-Day Weather Forecast

Advertisements
Track Severe Weather on mobile